地図

経路データ

SID SEASON NUMBER BASIN SUBBASIN NAME ISO_TIME NATURE LAT LON WMO_WIND WMO_PRES WMO_AGENCY TRACK_TYPE DIST2LAND LANDFALL IFLAG USA_AGENCY USA_ATCF_ID USA_LAT USA_LON USA_RECORD USA_STATUS USA_WIND USA_PRES USA_SSHS USA_R34_NE USA_R34_SE USA_R34_SW USA_R34_NW USA_R50_NE USA_R50_SE USA_R50_SW USA_R50_NW USA_R64_NE USA_R64_SE USA_R64_SW USA_R64_NW USA_POCI USA_ROCI USA_RMW USA_EYE TOKYO_LAT TOKYO_LON TOKYO_GRADE TOKYO_WIND TOKYO_PRES TOKYO_R50_DIR TOKYO_R50_LONG TOKYO_R50_SHORT TOKYO_R30_DIR TOKYO_R30_LONG TOKYO_R30_SHORT TOKYO_LAND CMA_LAT CMA_LON CMA_CAT CMA_WIND CMA_PRES HKO_LAT HKO_LON HKO_CAT HKO_WIND HKO_PRES NEWDELHI_LAT NEWDELHI_LON NEWDELHI_GRADE NEWDELHI_WIND NEWDELHI_PRES NEWDELHI_CI NEWDELHI_DP NEWDELHI_POCI REUNION_LAT REUNION_LON REUNION_TYPE REUNION_WIND REUNION_PRES REUNION_TNUM REUNION_CI REUNION_RMW REUNION_R34_NE REUNION_R34_SE REUNION_R34_SW REUNION_R34_NW REUNION_R50_NE REUNION_R50_SE REUNION_R50_SW REUNION_R50_NW REUNION_R64_NE REUNION_R64_SE REUNION_R64_SW REUNION_R64_NW BOM_LAT BOM_LON BOM_TYPE BOM_WIND BOM_PRES BOM_TNUM BOM_CI BOM_RMW BOM_R34_NE BOM_R34_SE BOM_R34_SW BOM_R34_NW BOM_R50_NE BOM_R50_SE BOM_R50_SW BOM_R50_NW BOM_R64_NE BOM_R64_SE BOM_R64_SW BOM_R64_NW BOM_ROCI BOM_POCI BOM_EYE BOM_POS_METHOD BOM_PRES_METHOD NADI_LAT NADI_LON NADI_CAT NADI_WIND NADI_PRES WELLINGTON_LAT WELLINGTON_LON WELLINGTON_WIND WELLINGTON_PRES DS824_LAT DS824_LON DS824_STAGE DS824_WIND DS824_PRES TD9636_LAT TD9636_LON TD9636_STAGE TD9636_WIND TD9636_PRES TD9635_LAT TD9635_LON TD9635_WIND TD9635_PRES TD9635_ROCI NEUMANN_LAT NEUMANN_LON NEUMANN_CLASS NEUMANN_WIND NEUMANN_PRES MLC_LAT MLC_LON MLC_CLASS MLC_WIND MLC_PRES USA_GUST BOM_GUST BOM_GUST_PER REUNION_GUST REUNION_GUST_PER USA_SEAHGT USA_SEARAD_NE USA_SEARAD_SE USA_SEARAD_SW USA_SEARAD_NW STORM_SPEED STORM_DIR
1921253N09134 1921 46 WP MM NOT_NAMED 1921-09-09 22:00:00 NR 9.30000 134.000 main 833 806 __________O___ -1 9.30000 134.000 4 11 304
1921253N09134 1921 46 WP MM NOT_NAMED 1921-09-10 00:00:00 NR 9.50322 133.695 main 806 763 __________P___ -1 9.50322 133.695 4 11 304
1921253N09134 1921 46 WP MM NOT_NAMED 1921-09-10 03:00:00 NR 9.80035 133.244 main 763 728 __________P___ -1 9.80035 133.244 4 10 304
1921253N09134 1921 46 WP MM NOT_NAMED 1921-09-10 06:00:00 NR 10.0783 132.816 main 728 690 __________P___ -1 10.0783 132.816 4 10 303
1921253N09134 1921 46 WP MM NOT_NAMED 1921-09-10 09:00:00 NR 10.3260 132.421 main 690 682 __________P___ -1 10.3260 132.421 4 9 302
1921253N09134 1921 46 WP MM NOT_NAMED 1921-09-10 10:00:00 NR 10.4000 132.300 main 682 663 __________O___ -1 10.4000 132.300 4 8 301
1921253N09134 1921 46 WP MM NOT_NAMED 1921-09-10 12:00:00 NR 10.5340 132.074 main 663 636 __________P___ -1 10.5340 132.074 4 7 301
1921253N09134 1921 46 WP MM NOT_NAMED 1921-09-10 15:00:00 NR 10.7099 131.766 main 636 607 __________P___ -1 10.7099 131.766 4 7 300
1921253N09134 1921 46 WP MM NOT_NAMED 1921-09-10 18:00:00 NR 10.8722 131.480 main 611 583 __________P___ -1 10.8722 131.480 4 7 300
1921253N09134 1921 46 WP MM NOT_NAMED 1921-09-10 21:00:00 NR 11.0398 131.197 main 583 577 __________P___ -1 11.0398 131.197 4 7 301
1921253N09134 1921 46 WP MM NOT_NAMED 1921-09-10 22:00:00 NR 11.1000 131.100 main 577 557 __________O___ -1 11.1000 131.100 4 7 302
1921253N09134 1921 46 WP MM NOT_NAMED 1921-09-11 00:00:00 NR 11.2333 130.884 main 557 525 __________P___ -1 11.2333 130.884 4 8 303
1921253N09134 1921 46 WP MM NOT_NAMED 1921-09-11 03:00:00 NR 11.4458 130.553 main 525 486 __________P___ -1 11.4458 130.553 4 8 304
1921253N09134 1921 46 WP MM NOT_NAMED 1921-09-11 06:00:00 NR 11.6733 130.223 main 486 458 __________P___ -1 11.6733 130.223 4 8 306
1921253N09134 1921 46 WP MM NOT_NAMED 1921-09-11 09:00:00 NR 11.9158 129.903 main 458 450 __________P___ -1 11.9158 129.903 4 8 308
1921253N09134 1921 46 WP MM NOT_NAMED 1921-09-11 10:00:00 NR 12.0000 129.800 main 450 432 __________O___ -1 12.0000 129.800 4 7 311
1921253N09134 1921 46 WP MM NOT_NAMED 1921-09-11 12:00:00 NR 12.1559 129.621 main 435 418 __________P___ -1 12.1559 129.621 4 7 313
1921253N09134 1921 46 WP MM NOT_NAMED 1921-09-11 15:00:00 NR 12.4022 129.365 main 422 393 __________P___ -1 12.4022 129.365 4 7 316
1921253N09134 1921 46 WP MM NOT_NAMED 1921-09-11 18:00:00 NR 12.6746 129.102 main 395 366 __________P___ -1 12.6746 129.102 4 8 317
1921253N09134 1921 46 WP MM NOT_NAMED 1921-09-11 21:00:00 NR 12.9856 128.809 main 369 361 __________P___ -1 12.9856 128.809 4 9 317
1921253N09134 1921 46 WP MM NOT_NAMED 1921-09-11 22:00:00 NR 13.1000 128.700 main 361 342 __________O___ -1 13.1000 128.700 4 10 316
1921253N09134 1921 46 WP MM NOT_NAMED 1921-09-12 00:00:00 NR 13.3545 128.438 main 342 324 __________P___ -1 13.3545 128.438 4 11 315
1921253N09134 1921 46 WP MM NOT_NAMED 1921-09-12 03:00:00 NR 13.7742 128.007 main 324 311 __________P___ -1 13.7742 128.007 4 12 315
1921253N09134 1921 46 WP MM NOT_NAMED 1921-09-12 06:00:00 NR 14.2170 127.560 main 319 304 __________P___ -1 14.2170 127.560 4 12 316
1921253N09134 1921 46 WP MM NOT_NAMED 1921-09-12 09:00:00 NR 14.6578 127.132 main 304 297 __________P___ -1 14.6578 127.132 4 12 317
1921253N09134 1921 46 WP MM NOT_NAMED 1921-09-12 10:00:00 NR 14.8000 127.000 main 297 286 __________O___ -1 14.8000 127.000 4 11 319
1921253N09134 1921 46 WP MM NOT_NAMED 1921-09-12 12:00:00 NR 15.0558 126.779 main 291 275 __________P___ -1 15.0558 126.779 4 10 321
1921253N09134 1921 46 WP MM NOT_NAMED 1921-09-12 15:00:00 NR 15.4270 126.479 main 281 279 __________P___ -1 15.4270 126.479 4 9 323
1921253N09134 1921 46 WP MM NOT_NAMED 1921-09-12 18:00:00 NR 15.7944 126.195 main 286 286 __________P___ -1 15.7944 126.195 4 9 323
1921253N09134 1921 46 WP MM NOT_NAMED 1921-09-12 21:00:00 NR 16.1706 125.904 main 300 300 __________P___ -1 16.1706 125.904 4 10 323
1921253N09134 1921 46 WP MM NOT_NAMED 1921-09-12 22:00:00 NR 16.3000 125.800 main 303 303 __________O___ -1 16.3000 125.800 4 10 321
1921253N09134 1921 46 WP MM NOT_NAMED 1921-09-13 00:00:00 NR 16.5693 125.564 main 322 287 __________P___ -1 16.5693 125.564 4 11 320
1921253N09134 1921 46 WP MM NOT_NAMED 1921-09-13 03:00:00 NR 16.9858 125.192 main 287 248 __________P___ -1 16.9858 125.192 4 11 319
1921253N09134 1921 46 WP MM NOT_NAMED 1921-09-13 06:00:00 NR 17.4146 124.808 main 248 219 __________P___ -1 17.4146 124.808 4 11 320
1921253N09134 1921 46 WP MM NOT_NAMED 1921-09-13 09:00:00 NR 17.8525 124.425 main 222 214 __________P___ -1 17.8525 124.425 4 11 320
1921253N09134 1921 46 WP MM NOT_NAMED 1921-09-13 10:00:00 NR 18.0000 124.300 main 214 190 __________O___ -1 18.0000 124.300 4 11 322
1921253N09134 1921 46 WP MM NOT_NAMED 1921-09-13 12:00:00 NR 18.3020 124.053 main 190 151 __________P___ -1 18.3020 124.053 4 12 323
1921253N09134 1921 46 WP MM NOT_NAMED 1921-09-13 15:00:00 NR 18.7617 123.689 main 154 138 __________P___ -1 18.7617 123.689 4 11 324
1921253N09134 1921 46 WP MM NOT_NAMED 1921-09-13 18:00:00 NR 19.2182 123.337 main 138 138 __________P___ -1 19.2182 123.337 4 11 324
1921253N09134 1921 46 WP MM NOT_NAMED 1921-09-13 21:00:00 NR 19.6588 123.005 main 162 162 __________P___ -1 19.6588 123.005 4 11 325
1921253N09134 1921 46 WP MM NOT_NAMED 1921-09-13 22:00:00 NR 19.8000 122.900 main 168 168 __________O___ -1 19.8000 122.900 4 10 324
1921253N09134 1921 46 WP MM NOT_NAMED 1921-09-14 00:00:00 NR 20.0617 122.696 main 194 192 __________P___ -1 20.0617 122.696 4 9 324
1921253N09134 1921 46 WP MM NOT_NAMED 1921-09-14 03:00:00 NR 20.4353 122.410 main 223 174 __________P___ -1 20.4353 122.410 4 9 325
1921253N09134 1921 46 WP MM NOT_NAMED 1921-09-14 06:00:00 NR 20.8002 122.142 main 174 129 __________P___ -1 20.8002 122.142 4 9 326
1921253N09134 1921 46 WP MM NOT_NAMED 1921-09-14 09:00:00 NR 21.1719 121.884 main 129 114 __________P___ -1 21.1719 121.884 4 9 327
1921253N09134 1921 46 WP MM NOT_NAMED 1921-09-14 10:00:00 NR 21.3000 121.800 main 114 79 __________O___ -1 21.3000 121.800 4 9 326
1921253N09134 1921 46 WP MM NOT_NAMED 1921-09-14 12:00:00 NR 21.5589 121.604 main 79 41 __________P___ -1 21.5589 121.604 4 10 326
1921253N09134 1921 46 WP MM NOT_NAMED 1921-09-14 15:00:00 NR 21.9595 121.316 main 41 20 __________P___ -1 21.9595 121.316 4 10 328
1921253N09134 1921 46 WP MM NOT_NAMED 1921-09-14 18:00:00 NR 22.3832 121.057 main 20 0 __________P___ -1 22.3832 121.057 4 10 334
1921253N09134 1921 46 WP MM NOT_NAMED 1921-09-14 21:00:00 NR 22.8392 120.852 main 0 0 __________P___ -1 22.8392 120.852 4 10 339
1921253N09134 1921 46 WP MM NOT_NAMED 1921-09-14 22:00:00 NR 23.0000 120.800 main 0 0 __________O___ -1 23.0000 120.800 4 11 351
1921253N09134 1921 46 WP MM NOT_NAMED 1921-09-15 00:00:00 NR 23.3561 120.767 main 0 0 __________P___ -1 23.3561 120.767 4 11 0
1921253N09134 1921 46 WP MM NOT_NAMED 1921-09-15 03:00:00 NR 23.9224 120.776 main 0 0 __________P___ -1 23.9224 120.776 4 11 0
1921253N09134 1921 46 WP MM NOT_NAMED 1921-09-15 06:00:00 NR 24.4940 120.792 main 0 0 __________P___ -1 24.4940 120.792 4 11 358
1921253N09134 1921 46 WP MM NOT_NAMED 1921-09-15 09:00:00 NR 25.0337 120.743 main 30 32 __________P___ -1 25.0337 120.743 4 11 354
1921253N09134 1921 46 WP MM NOT_NAMED 1921-09-15 10:00:00 NR 25.2000 120.700 main 37 37 __________O___ -1 25.2000 120.700 4 10 337
1921253N09134 1921 46 WP MM NOT_NAMED 1921-09-15 12:00:00 NR 25.5088 120.521 main 75 49 __________P___ -1 25.5088 120.521 4 11 326
1921253N09134 1921 46 WP MM NOT_NAMED 1921-09-15 15:00:00 NR 25.9281 120.162 main 49 0 __________P___ -1 25.9281 120.162 4 11 318
1921253N09134 1921 46 WP MM NOT_NAMED 1921-09-15 18:00:00 NR 26.2943 119.746 main 0 0 __________P___ -1 26.2943 119.746 4 10 312
1921253N09134 1921 46 WP MM NOT_NAMED 1921-09-15 21:00:00 NR 26.6073 119.329 main 0 0 __________P___ -1 26.6073 119.329 4 10 310
1921253N09134 1921 46 WP MM NOT_NAMED 1921-09-15 22:00:00 NR 26.7000 119.200 main 0 0 __________O___ -1 26.7000 119.200 2 8 310
1921253N09134 1921 46 WP MM NOT_NAMED 1921-09-16 00:00:00 NR 26.8652 118.982 main 0 0 __________P___ -1 26.8652 118.982 2 7 309
1921253N09134 1921 46 WP MM NOT_NAMED 1921-09-16 03:00:00 NR 27.0689 118.682 main 0 0 __________P___ -1 27.0689 118.682 2 6 307
1921253N09134 1921 46 WP MM NOT_NAMED 1921-09-16 06:00:00 NR 27.2474 118.412 main 0 0 __________P___ -1 27.2474 118.412 2 6 309
1921253N09134 1921 46 WP MM NOT_NAMED 1921-09-16 09:00:00 NR 27.4318 118.173 main 0 0 __________P___ -1 27.4318 118.173 2 6 312
1921253N09134 1921 46 WP MM NOT_NAMED 1921-09-16 10:00:00 NR 27.5000 118.100 main 0 0 __________O___ -1 27.5000 118.100 2 6 320
1921253N09134 1921 46 WP MM NOT_NAMED 1921-09-16 12:00:00 NR 27.6512 117.964 main 0 0 __________P___ -1 27.6512 117.964 2 6 325
1921253N09134 1921 46 WP MM NOT_NAMED 1921-09-16 15:00:00 NR 27.9098 117.779 main 0 0 __________P___ -1 27.9098 117.779 2 6 330
1921253N09134 1921 46 WP MM NOT_NAMED 1921-09-16 18:00:00 NR 28.1960 117.611 main 0 0 __________P___ -1 28.1960 117.611 2 7 334
1921253N09134 1921 46 WP MM NOT_NAMED 1921-09-16 21:00:00 NR 28.4979 117.452 main 0 0 __________P___ -1 28.4979 117.452 2 7 335
1921253N09134 1921 46 WP MM NOT_NAMED 1921-09-16 22:00:00 NR 28.6000 117.400 main 0 __________O___ -1 28.6000 117.400 2 7 336

デジタル台風データ・検索

IBTrACS Databaseについて

本データベースは、米国NOAAが公開する1842年以降の世界の熱帯低気圧のベストトラックデータアーカイブInternational Best Track Archive for Climate Stewardship (IBTrACS)を、ウェブで閲覧しやすい形式に変換したものです。

最終更新日:2021-10-08